CheckWX is a tool to help pilots better visualize weather data.  It is not intended as a substitute for an official pre-flight weather briefing.

01:30:48 UTC

KLNS TAF
Lancaster Airport
Lancaster, Pennsylvania, USA
KLNS 212337Z 2200/2224 33005KT P6SM BKN220 FM221500 28003KT P6SM SKC

Jan-22@
00:00 UTC

Jan-22 @ 00:00 UTC

Jan-22@
15:00 UTC

Jan-22 @ 15:00 UTC

KLNS 212337Z 2200/2224 33005KT P6SM BKN220
Wind
  • 330° at 5 KTS
Cloud Levels
  • Broken at 22,000' AGL

Jan-22@
15:00 UTC

Jan-22 @ 15:00 UTC

Jan-23@
00:00 UTC

Jan-23 @ 00:00 UTC

FM221500 28003KT P6SM SKC

From

From Standard forecast or significant change

Wind
  • 280° at 3 KTS
Cloud Levels
  • Clear skies